Time;durP1;ratioP1;P1;durP2;ratioP2;P2;SDS_P1;SDS_P2;PMS_P1;PMS_P2;Temp;Humidity;BMP_temperature;BMP_pressure;BME280_temperature;BME280_humidity;BME280_pressure;Samples;Min_cycle;Max_cycle;Signal;HPM_P1;HPM_P2
2023/09/27 00:00:45;;;;;;;14.43;7.65;;;;;;;;;;5110849;28;20039;-59
2023/09/27 00:03:11;;;;;;;14.63;7.40;;;;;;;;;;5108677;28;20047;-59
2023/09/27 00:05:37;;;;;;;12.38;7.25;;;;;;;;;;5109349;28;20082;-60
2023/09/27 00:08:06;;;;;;;14.93;7.55;;;;;;;;;;5107194;28;20023;-59
2023/09/27 00:10:32;;;;;;;12.55;7.90;;;;;;;;;;5108966;28;20043;-60
2023/09/27 00:12:58;;;;;;;13.75;7.28;;;;;;;;;;5108567;28;20433;-60
2023/09/27 00:15:25;;;;;;;14.38;7.45;;;;;;;;;;5107527;28;20051;-60
2023/09/27 00:17:51;;;;;;;12.77;7.07;;;;;;;;;;5094413;28;20399;-60
2023/09/27 00:20:19;;;;;;;15.20;7.20;;;;;;;;;;5107959;28;21103;-60
2023/09/27 00:22:45;;;;;;;12.80;7.28;;;;;;;;;;5109558;28;20031;-60
2023/09/27 00:25:13;;;;;;;16.55;7.53;;;;;;;;;;5089361;28;20066;-60
2023/09/27 00:27:41;;;;;;;14.50;8.07;;;;;;;;;;5107974;28;20063;-60
2023/09/27 00:30:14;;;;;;;13.00;6.80;;;;;;;;;;5108610;28;20046;-60
2023/09/27 00:32:42;;;;;;;17.83;7.10;;;;;;;;;;5087817;28;20422;-60
2023/09/27 00:35:18;;;;;;;12.77;7.05;;;;;;;;;;5106076;28;20032;-60
2023/09/27 00:37:48;;;;;;;11.85;6.75;;;;;;;;;;5103089;28;20503;-61
2023/09/27 00:40:18;;;;;;;12.93;7.10;;;;;;;;;;5096071;28;20024;-60
2023/09/27 00:42:45;;;;;;;12.27;7.15;;;;;;;;;;5109931;28;20027;-60
2023/09/27 00:45:11;;;;;;;11.40;6.38;;;;;;;;;;5092289;28;20036;-60
2023/09/27 00:47:37;;;;;;;10.75;6.88;;;;;;;;;;5087972;28;20034;-60
2023/09/27 00:50:07;;;;;;;12.20;7.15;;;;;;;;;;5108533;28;20414;-60
2023/09/27 00:52:33;;;;;;;;;;;;;;;;;;5088456;28;20038;-60
2023/09/27 00:54:59;;;;;;;13.73;7.78;;;;;;;;;;5109330;28;19922;-60
2023/09/27 00:57:25;;;;;;;11.85;6.85;;;;;;;;;;5101903;28;20422;-60
2023/09/27 00:59:52;;;;;;;12.10;6.95;;;;;;;;;;5091305;28;20466;-60
2023/09/27 01:02:18;;;;;;;10.18;6.65;;;;;;;;;;5088807;28;20529;-59
2023/09/27 01:04:45;;;;;;;12.40;6.80;;;;;;;;;;5106365;28;20031;-60
2023/09/27 01:07:11;;;;;;;13.20;7.07;;;;;;;;;;5092494;28;20035;-60
2023/09/27 01:09:37;;;;;;;14.02;6.50;;;;;;;;;;5091583;28;20032;-60
2023/09/27 01:12:04;;;;;;;12.45;7.30;;;;;;;;;;5108663;28;20402;-60
2023/09/27 01:14:30;;;;;;;12.32;6.57;;;;;;;;;;5091548;28;20043;-60
2023/09/27 01:17:11;;;;;;;13.63;7.28;;;;;;;;;;5108111;28;20068;-60
2023/09/27 01:19:41;;;;;;;13.77;6.53;;;;;;;;;;5107914;28;20040;-59
2023/09/27 01:22:07;;;;;;;;;;;;;;;;;;5108135;28;20040;-59
2023/09/27 01:24:36;;;;;;;10.88;6.75;;;;;;;;;;5071341;28;19912;-61
2023/09/27 01:27:05;;;;;;;13.68;7.60;;;;;;;;;;5087446;28;20046;-59
2023/09/27 01:29:31;;;;;;;13.82;7.68;;;;;;;;;;5092171;28;20532;-61
2023/09/27 01:31:57;;;;;;;12.10;7.38;;;;;;;;;;5072169;28;20542;-61
2023/09/27 01:34:23;;;;;;;14.30;7.55;;;;;;;;;;5105831;28;20027;-60
2023/09/27 01:36:51;;;;;;;14.68;7.53;;;;;;;;;;5105947;28;20035;-61
2023/09/27 01:39:18;;;;;;;13.77;7.82;;;;;;;;;;5095858;28;20035;-59
2023/09/27 01:41:44;;;;;;;13.73;6.90;;;;;;;;;;5085948;28;20048;-59
2023/09/27 01:44:10;;;;;;;15.20;6.70;;;;;;;;;;5099893;28;20047;-60
2023/09/27 01:46:36;;;;;;;12.63;7.68;;;;;;;;;;5107603;28;20048;-60
2023/09/27 01:49:03;;;;;;;13.68;7.35;;;;;;;;;;5089361;28;20051;-59
2023/09/27 01:51:29;;;;;;;17.45;7.35;;;;;;;;;;5108385;28;20035;-59
2023/09/27 01:53:55;;;;;;;16.02;8.23;;;;;;;;;;5107723;28;20061;-59
2023/09/27 01:56:21;;;;;;;14.43;7.30;;;;;;;;;;5103075;28;20035;-58
2023/09/27 01:58:47;;;;;;;12.88;7.28;;;;;;;;;;5092062;28;20023;-60
2023/09/27 02:01:13;;;;;;;14.50;7.90;;;;;;;;;;5088987;28;20694;-59
2023/09/27 02:03:40;;;;;;;13.77;8.07;;;;;;;;;;5086125;28;20039;-59
2023/09/27 02:06:06;;;;;;;12.88;7.72;;;;;;;;;;5106723;28;20035;-60
2023/09/27 02:08:32;;;;;;;12.82;7.10;;;;;;;;;;5089900;28;20042;-60
2023/09/27 02:10:59;;;;;;;12.75;7.18;;;;;;;;;;5107274;28;20669;-60
2023/09/27 02:13:25;;;;;;;13.48;7.28;;;;;;;;;;5089791;28;20051;-61
2023/09/27 02:15:54;;;;;;;13.88;7.35;;;;;;;;;;5087629;28;20047;-59
2023/09/27 02:18:20;;;;;;;13.57;7.70;;;;;;;;;;5088226;28;21593;-60
2023/09/27 02:20:46;;;;;;;14.05;7.38;;;;;;;;;;5106719;28;20043;-61
2023/09/27 02:23:13;;;;;;;16.65;8.32;;;;;;;;;;5087185;28;20044;-61
2023/09/27 02:25:39;;;;;;;13.00;8.20;;;;;;;;;;5106118;28;20656;-59
2023/09/27 02:28:06;;;;;;;17.67;7.88;;;;;;;;;;5107004;28;20035;-59
2023/09/27 02:30:33;;;;;;;12.75;7.60;;;;;;;;;;5088991;28;20038;-60
2023/09/27 02:33:00;;;;;;;18.42;8.43;;;;;;;;;;5105878;28;20410;-59
2023/09/27 02:35:26;;;;;;;20.65;8.82;;;;;;;;;;5107283;28;20418;-59
2023/09/27 02:37:52;;;;;;;14.35;8.15;;;;;;;;;;5108787;28;20027;-59
2023/09/27 02:40:18;;;;;;;20.50;8.48;;;;;;;;;;5090571;28;20396;-60
2023/09/27 02:42:46;;;;;;;15.00;7.45;;;;;;;;;;5093788;28;20035;-60
2023/09/27 02:45:13;;;;;;;12.07;7.70;;;;;;;;;;5086766;28;20044;-59
2023/09/27 02:47:40;;;;;;;13.80;8.38;;;;;;;;;;5107734;28;20050;-59
2023/09/27 02:50:09;;;;;;;15.48;8.18;;;;;;;;;;5106118;28;20043;-60
2023/09/27 02:52:36;;;;;;;16.33;7.55;;;;;;;;;;5088674;28;20040;-60
2023/09/27 02:55:02;;;;;;;15.20;8.23;;;;;;;;;;5106178;28;20047;-60
2023/09/27 02:57:28;;;;;;;13.05;6.85;;;;;;;;;;5108404;28;20023;-60
2023/09/27 02:59:55;;;;;;;13.73;7.75;;;;;;;;;;5107562;28;20426;-59
2023/09/27 03:02:23;;;;;;;23.05;9.95;;;;;;;;;;5087822;28;20043;-60
2023/09/27 03:04:49;;;;;;;17.63;9.10;;;;;;;;;;5085800;28;20038;-59
2023/09/27 03:07:15;;;;;;;15.13;8.07;;;;;;;;;;5090070;28;20039;-59
2023/09/27 03:09:43;;;;;;;12.10;7.25;;;;;;;;;;5088831;28;20060;-59
2023/09/27 03:12:11;;;;;;;14.05;8.13;;;;;;;;;;5087713;28;20043;-60
2023/09/27 03:14:37;;;;;;;15.68;7.97;;;;;;;;;;5102775;28;20054;-60
2023/09/27 03:17:03;;;;;;;17.60;7.45;;;;;;;;;;5087968;28;20051;-59
2023/09/27 03:19:30;;;;;;;14.18;7.82;;;;;;;;;;5088901;28;20028;-60
2023/09/27 03:21:56;;;;;;;16.40;8.00;;;;;;;;;;5088574;28;20051;-60
2023/09/27 03:24:26;;;;;;;17.80;9.18;;;;;;;;;;5084203;28;20051;-60
2023/09/27 03:26:53;;;;;;;17.70;8.38;;;;;;;;;;5105863;28;20040;-59
2023/09/27 03:29:19;;;;;;;14.60;9.07;;;;;;;;;;5106230;28;20036;-60
2023/09/27 03:31:45;;;;;;;14.30;7.93;;;;;;;;;;5081539;28;20034;-60
2023/09/27 03:34:11;;;;;;;17.52;8.02;;;;;;;;;;5087317;28;20048;-60
2023/09/27 03:36:38;;;;;;;14.18;7.78;;;;;;;;;;5073212;28;20032;-58
2023/09/27 03:39:04;;;;;;;13.85;6.88;;;;;;;;;;5087962;28;20040;-60
2023/09/27 03:41:32;;;;;;;15.68;7.82;;;;;;;;;;5089036;28;20406;-59
2023/09/27 03:43:58;;;;;;;13.63;7.53;;;;;;;;;;5086078;28;20058;-61
2023/09/27 03:46:24;;;;;;;13.95;7.55;;;;;;;;;;5084157;28;20040;-59
2023/09/27 03:48:50;;;;;;;19.10;7.97;;;;;;;;;;5086549;28;20059;-60
2023/09/27 03:51:24;;;;;;;16.00;7.63;;;;;;;;;;5089104;28;20039;-60
2023/09/27 03:53:51;;;;;;;19.98;9.02;;;;;;;;;;5087845;28;20043;-60
2023/09/27 03:56:18;;;;;;;15.65;8.10;;;;;;;;;;5088707;28;20031;-60
2023/09/27 03:58:44;;;;;;;14.25;8.07;;;;;;;;;;5089104;28;20028;-60
2023/09/27 04:01:10;;;;;;;12.68;7.47;;;;;;;;;;5105538;28;20038;-60
2023/09/27 04:03:36;;;;;;;12.15;7.13;;;;;;;;;;5085263;28;20035;-60
2023/09/27 04:06:02;;;;;;;12.48;7.13;;;;;;;;;;5087310;28;20047;-60
2023/09/27 04:08:29;;;;;;;13.35;7.55;;;;;;;;;;5087655;28;20031;-60
2023/09/27 04:10:55;;;;;;;12.27;7.15;;;;;;;;;;5106350;28;20024;-60
2023/09/27 04:13:21;;;;;;;12.90;7.15;;;;;;;;;;5104212;28;20059;-59
2023/09/27 04:15:49;;;;;;;10.93;6.32;;;;;;;;;;5104005;28;20036;-60
2023/09/27 04:18:15;;;;;;;10.63;6.55;;;;;;;;;;5104885;28;20074;-60
2023/09/27 04:20:41;;;;;;;13.02;6.40;;;;;;;;;;5106352;28;20449;-58
2023/09/27 04:23:07;;;;;;;9.98;6.40;;;;;;;;;;5100912;28;20048;-58
2023/09/27 04:25:33;;;;;;;12.00;7.50;;;;;;;;;;5103962;28;20032;-60
2023/09/27 04:27:59;;;;;;;9.25;6.20;;;;;;;;;;5107587;28;20040;-60
2023/09/27 04:30:26;;;;;;;11.93;6.63;;;;;;;;;;5110533;28;20540;-60
2023/09/27 04:32:52;;;;;;;8.43;6.10;;;;;;;;;;5108594;28;20048;-59
2023/09/27 04:35:19;;;;;;;11.40;6.90;;;;;;;;;;5105605;28;20058;-59
2023/09/27 04:37:45;;;;;;;16.38;9.23;;;;;;;;;;5100646;28;20043;-60
2023/09/27 04:40:12;;;;;;;9.68;6.10;;;;;;;;;;5108912;28;20035;-60
2023/09/27 04:42:43;;;;;;;5.97;4.90;;;;;;;;;;5108655;28;20056;-59
2023/09/27 04:45:11;;;;;;;7.22;5.40;;;;;;;;;;5105518;28;20487;-60
2023/09/27 04:47:37;;;;;;;6.90;5.03;;;;;;;;;;5109027;28;20398;-59
2023/09/27 04:50:06;;;;;;;7.30;5.45;;;;;;;;;;5110849;28;20514;-60
2023/09/27 04:52:32;;;;;;;7.55;5.40;;;;;;;;;;5090873;28;20564;-59
2023/09/27 04:54:58;;;;;;;11.27;7.80;;;;;;;;;;5107968;28;20228;-59
2023/09/27 04:57:25;;;;;;;9.55;6.32;;;;;;;;;;5107185;28;20039;-60
2023/09/27 04:59:54;;;;;;;6.20;4.75;;;;;;;;;;5108194;28;20039;-60
2023/09/27 05:02:20;;;;;;;6.30;4.78;;;;;;;;;;5088453;28;20164;-59
2023/09/27 05:04:47;;;;;;;7.32;4.45;;;;;;;;;;5106035;28;20036;-59
2023/09/27 05:07:18;;;;;;;6.45;4.53;;;;;;;;;;5108849;28;20031;-59
2023/09/27 05:09:44;;;;;;;6.30;4.35;;;;;;;;;;5107978;28;20031;-60
2023/09/27 05:12:12;;;;;;;8.25;5.10;;;;;;;;;;5107302;28;20043;-58
2023/09/27 05:14:38;;;;;;;5.68;4.75;;;;;;;;;;5103749;28;20039;-59
2023/09/27 05:17:05;;;;;;;7.32;4.85;;;;;;;;;;5106625;28;20093;-59
2023/09/27 05:19:31;;;;;;;7.50;4.80;;;;;;;;;;5108387;28;20019;-59
2023/09/27 05:21:58;;;;;;;5.35;4.50;;;;;;;;;;5108142;28;20410;-59
2023/09/27 05:24:24;;;;;;;5.80;4.00;;;;;;;;;;5104092;28;20035;-59
2023/09/27 05:26:51;;;;;;;5.50;4.07;;;;;;;;;;5108757;28;20420;-59
2023/09/27 05:29:17;;;;;;;13.13;6.88;;;;;;;;;;5109828;28;20035;-59
2023/09/27 05:31:43;;;;;;;22.45;12.63;;;;;;;;;;5106029;28;20058;-58
2023/09/27 05:34:09;;;;;;;6.57;5.05;;;;;;;;;;5099285;28;20039;-58
2023/09/27 05:36:36;;;;;;;6.40;5.28;;;;;;;;;;5108664;28;20031;-59
2023/09/27 05:39:04;;;;;;;14.55;8.15;;;;;;;;;;5105989;28;20040;-60
2023/09/27 05:41:30;;;;;;;14.32;8.43;;;;;;;;;;5108238;28;20034;-59
2023/09/27 05:43:56;;;;;;;8.73;6.45;;;;;;;;;;5105928;28;20043;-59
2023/09/27 05:46:22;;;;;;;6.43;5.78;;;;;;;;;;5106664;28;20035;-59
2023/09/27 05:48:49;;;;;;;7.20;5.40;;;;;;;;;;5109817;28;20425;-59
2023/09/27 05:51:15;;;;;;;6.57;5.43;;;;;;;;;;5108902;28;20406;-59
2023/09/27 05:53:41;;;;;;;7.15;5.80;;;;;;;;;;5106745;28;20031;-59
2023/09/27 05:56:08;;;;;;;9.95;6.40;;;;;;;;;;5107839;28;20047;-59
2023/09/27 05:58:35;;;;;;;13.10;9.48;;;;;;;;;;5107521;28;20494;-59
2023/09/27 06:01:02;;;;;;;11.77;8.10;;;;;;;;;;5106660;28;20534;-59
2023/09/27 06:03:31;;;;;;;10.13;7.40;;;;;;;;;;5105671;28;20044;-59
2023/09/27 06:05:58;;;;;;;15.15;9.35;;;;;;;;;;5106466;28;20059;-59
2023/09/27 06:08:25;;;;;;;7.85;7.05;;;;;;;;;;5106537;28;20378;-59
2023/09/27 06:10:51;;;;;;;10.77;6.90;;;;;;;;;;5107655;28;20043;-60
2023/09/27 06:13:17;;;;;;;11.85;8.18;;;;;;;;;;5105630;28;20047;-59
2023/09/27 06:15:43;;;;;;;10.32;6.75;;;;;;;;;;5087378;28;20036;-59
2023/09/27 06:18:12;;;;;;;7.82;5.38;;;;;;;;;;5107095;28;20668;-60
2023/09/27 06:20:40;;;;;;;6.40;4.95;;;;;;;;;;5107976;28;20035;-58
2023/09/27 06:23:06;;;;;;;7.80;5.00;;;;;;;;;;5105796;28;20062;-57
2023/09/27 06:25:34;;;;;;;8.23;5.13;;;;;;;;;;5090422;28;20040;-59
2023/09/27 06:28:01;;;;;;;6.82;5.10;;;;;;;;;;5104932;28;20062;-58
2023/09/27 06:30:27;;;;;;;7.60;5.22;;;;;;;;;;5107452;28;20027;-59
2023/09/27 06:32:53;;;;;;;9.77;7.40;;;;;;;;;;5107889;28;20035;-59
2023/09/27 06:35:20;;;;;;;9.07;7.45;;;;;;;;;;5084911;28;20055;-60
2023/09/27 06:37:49;;;;;;;10.75;7.15;;;;;;;;;;5106010;28;20074;-60
2023/09/27 06:40:17;;;;;;;8.55;6.70;;;;;;;;;;5093325;28;20035;-59
2023/09/27 06:42:44;;;;;;;10.88;6.13;;;;;;;;;;5107538;28;20038;-60
2023/09/27 06:45:10;;;;;;;9.50;6.57;;;;;;;;;;5103175;28;20040;-59
2023/09/27 06:47:38;;;;;;;8.98;6.75;;;;;;;;;;5107836;28;20044;-60
2023/09/27 06:50:05;;;;;;;8.55;6.28;;;;;;;;;;5108021;28;20039;-59
2023/09/27 06:52:31;;;;;;;7.97;6.22;;;;;;;;;;5107513;28;20036;-59
2023/09/27 06:54:57;;;;;;;11.18;6.93;;;;;;;;;;5085179;28;20051;-60
2023/09/27 06:57:23;;;;;;;11.05;7.03;;;;;;;;;;5105070;28;20024;-60
2023/09/27 06:59:49;;;;;;;9.50;7.10;;;;;;;;;;5106498;28;20023;-59
2023/09/27 07:02:16;;;;;;;9.52;7.22;;;;;;;;;;5104998;28;20051;-59
2023/09/27 07:04:43;;;;;;;9.93;7.35;;;;;;;;;;5102699;28;20044;-59
2023/09/27 07:07:10;;;;;;;10.50;7.63;;;;;;;;;;5106904;28;20059;-59
2023/09/27 07:09:36;;;;;;;11.68;8.00;;;;;;;;;;5102505;28;20048;-59
2023/09/27 07:12:03;;;;;;;13.55;8.18;;;;;;;;;;5072120;28;20052;-59
2023/09/27 07:14:29;;;;;;;11.02;7.50;;;;;;;;;;5096331;28;20040;-60
2023/09/27 07:16:55;;;;;;;15.32;8.27;;;;;;;;;;5099552;28;20380;-59
2023/09/27 07:19:23;;;;;;;10.02;7.13;;;;;;;;;;5103133;28;20502;-59
2023/09/27 07:21:49;;;;;;;10.48;7.72;;;;;;;;;;5086034;28;20047;-59
2023/09/27 07:24:15;;;;;;;12.55;7.70;;;;;;;;;;5103053;28;20019;-59
2023/09/27 07:26:42;;;;;;;9.88;7.57;;;;;;;;;;5102388;28;20028;-60
2023/09/27 07:29:09;;;;;;;9.85;7.85;;;;;;;;;;5102602;28;20036;-59
2023/09/27 07:31:35;;;;;;;15.80;7.90;;;;;;;;;;5103155;28;20028;-59
2023/09/27 07:34:01;;;;;;;11.48;7.15;;;;;;;;;;5096667;28;20414;-59
2023/09/27 07:36:27;;;;;;;10.15;7.38;;;;;;;;;;5101896;28;20110;-59
2023/09/27 07:38:58;;;;;;;10.10;7.18;;;;;;;;;;5104687;28;20102;-59
2023/09/27 07:41:25;;;;;;;16.02;7.53;;;;;;;;;;5082119;28;20055;-59
2023/09/27 07:43:51;;;;;;;9.68;7.35;;;;;;;;;;5086540;28;20020;-60
2023/09/27 07:46:18;;;;;;;10.68;7.78;;;;;;;;;;5099166;28;20052;-59
2023/09/27 07:48:45;;;;;;;10.27;7.50;;;;;;;;;;5104036;28;20040;-60
2023/09/27 07:51:19;;;;;;;10.20;7.82;;;;;;;;;;5103536;28;20058;-59
2023/09/27 07:53:45;;;;;;;9.40;7.72;;;;;;;;;;5102127;28;20024;-58
2023/09/27 07:56:19;;;;;;;10.80;7.55;;;;;;;;;;5101829;28;20036;-59
2023/09/27 07:58:51;;;;;;;11.52;7.18;;;;;;;;;;5084169;28;20028;-59
2023/09/27 08:01:20;;;;;;;11.30;8.45;;;;;;;;;;5099717;28;20043;-59
2023/09/27 08:03:48;;;;;;;11.30;8.05;;;;;;;;;;5105598;28;20035;-59
2023/09/27 08:06:16;;;;;;;12.07;7.70;;;;;;;;;;5109247;28;20105;-58
2023/09/27 08:08:43;;;;;;;11.88;7.68;;;;;;;;;;5103630;28;20391;-59
2023/09/27 08:11:13;;;;;;;9.77;7.03;;;;;;;;;;5107406;28;20044;-59
2023/09/27 08:13:40;;;;;;;10.15;6.60;;;;;;;;;;5106281;28;20042;-59
2023/09/27 08:16:07;;;;;;;8.63;6.80;;;;;;;;;;5108310;28;20394;-58
2023/09/27 08:18:34;;;;;;;10.80;6.90;;;;;;;;;;5109571;28;20051;-60
2023/09/27 08:21:01;;;;;;;8.88;6.13;;;;;;;;;;5110555;28;20031;-59
2023/09/27 08:23:27;;;;;;;7.32;6.20;;;;;;;;;;5106779;28;20785;-59
2023/09/27 08:25:53;;;;;;;10.57;6.63;;;;;;;;;;5109778;28;20521;-59
2023/09/27 08:28:23;;;;;;;7.85;6.05;;;;;;;;;;5106001;28;20038;-59
2023/09/27 08:30:50;;;;;;;10.43;6.07;;;;;;;;;;5108494;28;20043;-59
2023/09/27 08:33:16;;;;;;;13.32;6.20;;;;;;;;;;5105109;28;20058;-59
2023/09/27 08:35:42;;;;;;;16.20;6.45;;;;;;;;;;5110202;28;20085;-59
2023/09/27 08:38:08;;;;;;;10.90;6.28;;;;;;;;;;5108985;28;20047;-59
2023/09/27 08:40:35;;;;;;;10.25;6.20;;;;;;;;;;5108975;28;20035;-59
2023/09/27 08:43:01;;;;;;;10.00;6.55;;;;;;;;;;5106281;28;20047;-58
2023/09/27 08:45:28;;;;;;;10.07;6.07;;;;;;;;;;5109570;28;20509;-58
2023/09/27 08:47:54;;;;;;;10.73;5.70;;;;;;;;;;5092720;28;20039;-60
2023/09/27 08:50:21;;;;;;;13.75;5.78;;;;;;;;;;5108869;28;20062;-60
2023/09/27 08:52:49;;;;;;;10.13;5.55;;;;;;;;;;5088866;28;20036;-60
2023/09/27 08:55:16;;;;;;;7.50;4.78;;;;;;;;;;5107752;28;20027;-59
2023/09/27 08:57:48;;;;;;;8.20;5.53;;;;;;;;;;5090753;28;20039;-58
2023/09/27 09:00:20;;;;;;;7.45;5.50;;;;;;;;;;5086615;28;20042;-59
2023/09/27 09:02:56;;;;;;;8.05;5.22;;;;;;;;;;5106572;28;20395;-58
2023/09/27 09:05:24;;;;;;;7.10;5.00;;;;;;;;;;5085921;28;20667;-59
2023/09/27 09:07:54;;;;;;;7.28;5.30;;;;;;;;;;5107485;28;20027;-59
2023/09/27 09:10:22;;;;;;;5.72;4.80;;;;;;;;;;5105969;28;20052;-59
2023/09/27 09:12:49;;;;;;;7.63;4.90;;;;;;;;;;5104151;28;20034;-59
2023/09/27 09:15:41;;;;;;;7.78;5.20;;;;;;;;;;5102579;28;20420;-59
2023/09/27 09:18:31;;;;;;;9.55;4.90;;;;;;;;;;5109278;28;20054;-60
2023/09/27 09:21:08;;;;;;;8.95;5.03;;;;;;;;;;5107303;28;20047;-59
2023/09/27 09:23:36;;;;;;;10.43;5.63;;;;;;;;;;5108009;28;20854;-59
2023/09/27 09:26:09;;;;;;;7.75;5.03;;;;;;;;;;5106419;28;20494;-59
2023/09/27 09:28:56;;;;;;;8.32;4.40;;;;;;;;;;5088677;28;20402;-57
2023/09/27 09:31:30;;;;;;;7.15;4.82;;;;;;;;;;5105117;28;20499;-57
2023/09/27 09:34:04;;;;;;;8.57;5.35;;;;;;;;;;5089084;28;20047;-57
2023/09/27 09:36:30;;;;;;;10.38;6.32;;;;;;;;;;5107465;28;20409;-58
2023/09/27 09:39:14;;;;;;;11.38;6.90;;;;;;;;;;5107923;28;20035;-57
2023/09/27 09:41:45;;;;;;;7.45;5.10;;;;;;;;;;5104129;28;20415;-57
2023/09/27 09:44:18;;;;;;;6.78;4.90;;;;;;;;;;5105628;28;20040;-57
2023/09/27 09:46:45;;;;;;;9.18;5.07;;;;;;;;;;5101253;28;20040;-57
2023/09/27 09:49:14;;;;;;;7.10;4.50;;;;;;;;;;5107253;28;20042;-58
2023/09/27 09:51:47;;;;;;;9.10;4.50;;;;;;;;;;5106859;28;20027;-58
2023/09/27 09:54:26;;;;;;;8.30;4.47;;;;;;;;;;5106824;28;20038;-58
2023/09/27 09:56:57;;;;;;;9.60;4.43;;;;;;;;;;5107142;28;20043;-58
2023/09/27 09:59:30;;;;;;;6.63;4.78;;;;;;;;;;5107377;28;20429;-57
2023/09/27 10:01:57;;;;;;;5.50;4.45;;;;;;;;;;5105413;28;20039;-58
2023/09/27 10:04:26;;;;;;;9.73;4.47;;;;;;;;;;5088022;28;20490;-58
2023/09/27 10:06:53;;;;;;;4.25;3.47;;;;;;;;;;5107289;28;20058;-58
2023/09/27 10:09:21;;;;;;;5.95;4.03;;;;;;;;;;5107407;28;20038;-58
2023/09/27 10:11:48;;;;;;;10.38;4.50;;;;;;;;;;5106745;28;20425;-57
2023/09/27 10:14:16;;;;;;;7.50;4.13;;;;;;;;;;5105121;28;20063;-57
2023/09/27 10:16:43;;;;;;;7.73;4.20;;;;;;;;;;5108059;28;20399;-56
2023/09/27 10:19:09;;;;;;;6.75;4.10;;;;;;;;;;5108244;28;20040;-57
2023/09/27 10:22:00;;;;;;;7.68;4.28;;;;;;;;;;5087675;28;21524;-57
2023/09/27 10:24:26;;;;;;;9.43;4.50;;;;;;;;;;5104350;28;20032;-57
2023/09/27 10:26:53;;;;;;;6.38;4.38;;;;;;;;;;5106088;28;20401;-57
2023/09/27 10:29:20;;;;;;;5.32;4.13;;;;;;;;;;5105641;28;20032;-58
2023/09/27 10:32:01;;;;;;;5.93;4.00;;;;;;;;;;5105242;28;20027;-58
2023/09/27 10:34:33;;;;;;;9.93;4.68;;;;;;;;;;5104772;28;20043;-57
2023/09/27 10:37:00;;;;;;;6.78;4.22;;;;;;;;;;5105559;28;20525;-58
2023/09/27 10:39:27;;;;;;;6.43;4.22;;;;;;;;;;5107264;28;20027;-57
2023/09/27 10:41:53;;;;;;;6.47;4.88;;;;;;;;;;5088704;28;20411;-57
2023/09/27 10:44:27;;;;;;;7.90;4.63;;;;;;;;;;5106705;28;20042;-58
2023/09/27 10:46:53;;;;;;;7.13;4.00;;;;;;;;;;5106425;28;20036;-58
2023/09/27 10:49:20;;;;;;;7.55;4.50;;;;;;;;;;5105335;28;20028;-58
2023/09/27 10:51:46;;;;;;;7.30;4.80;;;;;;;;;;5103000;28;20038;-57
2023/09/27 10:54:12;;;;;;;7.22;4.53;;;;;;;;;;5105585;28;20032;-58
2023/09/27 10:56:44;;;;;;;5.93;4.55;;;;;;;;;;5087081;28;20398;-56
2023/09/27 10:59:11;;;;;;;8.00;4.70;;;;;;;;;;5107105;28;20031;-59
2023/09/27 11:01:43;;;;;;;6.50;4.32;;;;;;;;;;5105673;28;20521;-57
2023/09/27 11:04:12;;;;;;;8.65;4.90;;;;;;;;;;5087711;28;20024;-56
2023/09/27 11:06:38;;;;;;;;;;;;;;;;;;5104462;28;20066;-56
2023/09/27 11:09:08;;;;;;;5.07;4.10;;;;;;;;;;5106384;28;19912;-57
2023/09/27 11:11:35;;;;;;;6.38;4.18;;;;;;;;;;5105620;28;20028;-58
2023/09/27 11:14:01;;;;;;;8.70;4.40;;;;;;;;;;5106687;28;20044;-57
2023/09/27 11:16:27;;;;;;;6.53;4.40;;;;;;;;;;5101823;28;20410;-56
2023/09/27 11:18:56;;;;;;;6.25;4.45;;;;;;;;;;5105131;28;20028;-57
2023/09/27 11:21:24;;;;;;;6.47;4.00;;;;;;;;;;5106010;28;20039;-58
2023/09/27 11:23:56;;;;;;;4.60;3.95;;;;;;;;;;5088316;28;20407;-58
2023/09/27 11:26:27;;;;;;;6.30;4.07;;;;;;;;;;5104189;28;20039;-58
2023/09/27 11:28:59;;;;;;;5.03;3.83;;;;;;;;;;5105776;28;20062;-56
2023/09/27 11:31:26;;;;;;;4.15;3.50;;;;;;;;;;5105712;28;20036;-57
2023/09/27 11:33:53;;;;;;;7.22;3.92;;;;;;;;;;5105586;28;20027;-57
2023/09/27 11:36:19;;;;;;;10.90;3.65;;;;;;;;;;5105328;28;20028;-58
2023/09/27 11:38:51;;;;;;;4.35;3.50;;;;;;;;;;5109698;28;20395;-58
2023/09/27 11:41:18;;;;;;;5.47;3.55;;;;;;;;;;5108695;28;20023;-58
2023/09/27 11:43:45;;;;;;;3.92;3.53;;;;;;;;;;5106275;28;20032;-58
2023/09/27 11:46:12;;;;;;;5.50;3.75;;;;;;;;;;5085225;28;20386;-58
2023/09/27 11:48:39;;;;;;;4.78;3.60;;;;;;;;;;5109031;28;20047;-59
2023/09/27 11:51:05;;;;;;;7.65;3.50;;;;;;;;;;5110225;28;20379;-57
2023/09/27 11:53:31;;;;;;;3.80;3.00;;;;;;;;;;5110128;28;20031;-57
2023/09/27 11:55:59;;;;;;;4.35;3.28;;;;;;;;;;5105127;28;20052;-57
2023/09/27 11:58:26;;;;;;;4.47;3.30;;;;;;;;;;5108627;28;20050;-57
2023/09/27 12:00:52;;;;;;;5.65;3.38;;;;;;;;;;5108426;28;20040;-58
2023/09/27 12:03:18;;;;;;;4.50;3.22;;;;;;;;;;5107882;28;20051;-58
2023/09/27 12:05:44;;;;;;;3.95;2.95;;;;;;;;;;5106415;28;20028;-57
2023/09/27 12:08:10;;;;;;;6.03;3.20;;;;;;;;;;5109276;28;20063;-57
2023/09/27 12:10:36;;;;;;;4.65;3.13;;;;;;;;;;5091153;28;20032;-58
2023/09/27 12:13:03;;;;;;;4.00;3.10;;;;;;;;;;5110051;28;20051;-57
2023/09/27 12:15:29;;;;;;;4.18;3.35;;;;;;;;;;5108287;28;20398;-57
2023/09/27 12:17:55;;;;;;;3.53;2.90;;;;;;;;;;5092566;28;20035;-57
2023/09/27 12:20:22;;;;;;;4.75;3.00;;;;;;;;;;5109362;28;20027;-59
2023/09/27 12:22:48;;;;;;;4.88;3.05;;;;;;;;;;5109138;28;20028;-57
2023/09/27 12:25:14;;;;;;;3.72;2.85;;;;;;;;;;5089294;28;20406;-57
2023/09/27 12:27:40;;;;;;;4.50;3.15;;;;;;;;;;5075454;28;20070;-57
2023/09/27 12:30:08;;;;;;;3.10;2.80;;;;;;;;;;5108549;28;20454;-58
2023/09/27 12:32:35;;;;;;;5.63;2.95;;;;;;;;;;5108016;28;20047;-57
2023/09/27 12:35:01;;;;;;;7.45;3.10;;;;;;;;;;5106365;28;20556;-58
2023/09/27 12:37:27;;;;;;;5.15;2.78;;;;;;;;;;5109389;28;20027;-58
2023/09/27 12:39:53;;;;;;;8.10;3.13;;;;;;;;;;5109873;28;20051;-57
2023/09/27 12:42:20;;;;;;;12.30;3.45;;;;;;;;;;5110131;28;20027;-57
2023/09/27 12:44:46;;;;;;;4.82;2.80;;;;;;;;;;5108322;28;20591;-57
2023/09/27 12:47:14;;;;;;;7.97;3.45;;;;;;;;;;5105614;28;20035;-57
2023/09/27 12:49:40;;;;;;;4.80;2.80;;;;;;;;;;5108973;28;20035;-58
2023/09/27 12:52:06;;;;;;;6.47;2.70;;;;;;;;;;5108228;28;20055;-58
2023/09/27 12:54:32;;;;;;;6.50;2.60;;;;;;;;;;5106759;28;20043;-59
2023/09/27 12:56:59;;;;;;;7.25;3.10;;;;;;;;;;5108505;28;20410;-58
2023/09/27 12:59:26;;;;;;;4.03;3.00;;;;;;;;;;5107374;28;20388;-57
2023/09/27 13:01:52;;;;;;;4.50;2.50;;;;;;;;;;5107346;28;20495;-57
2023/09/27 13:04:18;;;;;;;4.50;2.92;;;;;;;;;;5108461;28;20043;-57
2023/09/27 13:06:45;;;;;;;7.47;2.80;;;;;;;;;;5109461;28;20036;-59
2023/09/27 13:09:11;;;;;;;3.67;2.75;;;;;;;;;;5106356;28;20047;-58
2023/09/27 13:11:37;;;;;;;4.22;3.10;;;;;;;;;;5108479;28;20047;-59
2023/09/27 13:14:03;;;;;;;5.35;2.70;;;;;;;;;;5107690;28;20066;-58
2023/09/27 13:16:30;;;;;;;5.93;2.60;;;;;;;;;;5101389;28;20055;-57
2023/09/27 13:18:56;;;;;;;5.85;3.10;;;;;;;;;;5106708;28;20054;-58
2023/09/27 13:21:23;;;;;;;4.70;2.90;;;;;;;;;;5108454;28;20047;-57
2023/09/27 13:23:49;;;;;;;4.78;2.90;;;;;;;;;;5087254;28;20040;-60
2023/09/27 13:26:15;;;;;;;6.78;3.50;;;;;;;;;;5105188;28;20498;-60
2023/09/27 13:28:41;;;;;;;8.43;3.13;;;;;;;;;;5108119;28;20047;-60
2023/09/27 13:31:07;;;;;;;8.20;2.78;;;;;;;;;;5108572;28;20039;-60
2023/09/27 13:33:34;;;;;;;5.53;2.83;;;;;;;;;;5107496;28;20027;-61
2023/09/27 13:36:00;;;;;;;4.55;2.70;;;;;;;;;;5105682;28;20047;-59
2023/09/27 13:38:27;;;;;;;4.30;2.65;;;;;;;;;;5106602;28;20070;-60
2023/09/27 13:40:53;;;;;;;5.70;3.80;;;;;;;;;;5108621;28;20486;-59
2023/09/27 13:43:20;;;;;;;5.93;2.58;;;;;;;;;;5090054;28;20368;-60
2023/09/27 13:45:46;;;;;;;4.57;2.50;;;;;;;;;;5106404;28;20044;-60
2023/09/27 13:48:12;;;;;;;3.17;2.45;;;;;;;;;;5109816;28;20039;-60
2023/09/27 13:50:38;;;;;;;4.95;2.30;;;;;;;;;;5107331;28;20028;-60
2023/09/27 13:53:05;;;;;;;4.85;3.13;;;;;;;;;;5107182;28;20078;-60
2023/09/27 13:55:31;;;;;;;4.22;2.80;;;;;;;;;;5104918;28;20054;-60
2023/09/27 13:57:57;;;;;;;4.63;2.80;;;;;;;;;;5106618;28;20039;-60
2023/09/27 14:00:23;;;;;;;5.10;2.80;;;;;;;;;;5105915;28;20032;-61
2023/09/27 14:02:49;;;;;;;4.18;3.00;;;;;;;;;;5091077;28;20019;-61
2023/09/27 14:05:15;;;;;;;5.47;2.33;;;;;;;;;;5105503;28;20039;-59
2023/09/27 14:07:42;;;;;;;4.25;2.00;;;;;;;;;;5087412;28;20062;-59
2023/09/27 14:10:08;;;;;;;9.23;2.60;;;;;;;;;;5108311;28;20042;-61
2023/09/27 14:12:34;;;;;;;4.72;2.20;;;;;;;;;;5106531;28;20047;-61
2023/09/27 14:15:02;;;;;;;6.82;3.30;;;;;;;;;;5086543;28;20036;-59
2023/09/27 14:17:28;;;;;;;7.13;4.43;;;;;;;;;;5106943;28;20115;-60
2023/09/27 14:19:55;;;;;;;5.72;3.67;;;;;;;;;;5106966;28;20046;-61
2023/09/27 14:22:21;;;;;;;3.83;2.83;;;;;;;;;;5106810;28;20044;-60
2023/09/27 14:24:48;;;;;;;4.28;2.70;;;;;;;;;;5106287;28;20035;-60
2023/09/27 14:27:14;;;;;;;3.80;2.40;;;;;;;;;;5106075;28;20035;-60
2023/09/27 14:29:40;;;;;;;3.22;2.30;;;;;;;;;;5103831;28;20027;-60
2023/09/27 14:32:06;;;;;;;5.40;2.22;;;;;;;;;;5106932;28;20024;-60
2023/09/27 14:34:36;;;;;;;4.20;2.40;;;;;;;;;;5105632;28;20035;-59
2023/09/27 14:37:03;;;;;;;4.75;2.70;;;;;;;;;;5106774;28;20039;-60
2023/09/27 14:39:29;;;;;;;4.78;2.55;;;;;;;;;;5108290;28;20042;-59